Terminal Aerodrome Forecast
Issued by NWS

Home | Current Version | Previous Version | Text Only | Print | Product List | Glossary On
Versions: 1 2 3 4 5 6 7 8 9 10 11 12 13 14 15
000
FTUS41 KBOX 250531
TAFACK
TAF
KACK 250531Z 2506/2606 33017G25KT P6SM BKN050
     FM250800 33015G22KT P6SM SCT250
     FM251200 34012KT P6SM FEW250
     FM251700 28009KT P6SM SCT150
     FM252000 22008KT P6SM SCT130
     FM260100 19007KT P6SM BKN110=

USA.gov is the U.S. government's official web portal to all federal, state and local government web resources and services.